LEIBLESB

Guest
Details From LEIB - Ibiza
To LESB - Son Bonet
Flight Number -
Tags generated
Created
Modified
Stats Distance 76 nm / 140 km
Max Altitude 1,800 ft / 549 m
Waypoints 3
Social Downloads 14
Likes 0
Share

Download

Looking for another format? Having issues loading an existing format? Contact us
Advertisement - Login to hide

Notes

Basic altitude profile: - Ascent Rate: 2500ft/min - Ascent Speed: 250kts - Cruise Altitude: 35000ft - Cruise Speed: 420kts - Descent Rate: 1500ft/min - Descent Speed: 250kts Options: - Use NATs: yes - Use PACOTS: yes - Use low airways: yes - Use high airways: yes

Route

LEIB IZA LESB

ID Type Via Altitude (ft/m) Position (lat/lon) Dist (leg/tot) Name
O LEIB APT - 0 / 0 38.87287 / 1.37304 - / 0 nm Ibiza
IZA NDB - 1,800 / 549 38.91547 / 1.47041 5 / 5 nm IBIZA NDB
O LESB APT - 0 / 0 39.59935 / 2.70355 70 / 75 nm Son Bonet

Altitude Profile

Advertisement - Login to hide

LEIB

Details ICAO LEIB (IBZ)
Name Ibiza
Region Spain
Timezone Europe/Madrid (UTC+2.0)
Stats Elevation 24 ft / 7 m (AMSL)
Location 38.872800° 1.373130°
Runways 1
Magnetic Variation 0.973° E

METAR

LEIB 240000Z 29010KT 250V310 CAVOK 20/10 Q1023 NOSIG

Decode

TAF

TAF LEIB 232000Z 2321/2421 26007KT 9999 FEW015 TX23/2412Z TN16/2405Z BECMG 2321/2323 32009KT BECMG 2410/2412 23010KT

Decode

Departure Runways

ID Width Length Bearing (true/mag) Surface Threshold Overrun Markings Lighting
06 148 ft / 45 m 9,160 ft / 2,792 m 61.99° / 61.01° ASPHALT 0 ft / 0 m 0 ft / 0 m PREC-APP CENTERLINE EDGE THRESHOLD CALVERT-ILS TDZ
24 148 ft / 45 m 9,160 ft / 2,792 m 242.00° / 241.03° ASPHALT 0 ft / 0 m 0 ft / 0 m PREC-APP CENTERLINE EDGE THRESHOLD CALVERT

LESB

Details ICAO LESB
Name Son Bonet
Region Spain
Timezone Europe/Madrid (UTC+2.0)
Stats Elevation 134 ft / 41 m (AMSL)
Location 39.598900° 2.702640°
Runways 1
Magnetic Variation 1.288° E

METAR

LESB 240000Z AUTO 02003KT 350V050 CAVOK 16/13 Q1023

Decode

TAF

Not found

Destination Runways

ID Width Length Bearing (true/mag) Surface Threshold Overrun Markings Lighting
06 72 ft / 22 m 4,928 ft / 1,502 m 51.10° / 49.81° ASPHALT 823 ft / 251 m 0 ft / 0 m APP
24 72 ft / 22 m 4,928 ft / 1,502 m 231.11° / 229.82° ASPHALT 820 ft / 250 m 0 ft / 0 m APP

Popular Alternatives